FKKN

N'Gaoundéré Airport

N'Gaoundéré, Cameroon
METAR FKKN 171400Z 36008KT CAVOK 30/05 Q1016
Observed Flight Rules
Dec-17 @ 14:00 UTC (29 minutes ago) Visual Flight Rules
Wind Visibility Clouds
360° at 8 knots 10,000+ meters
  • Clear skies
Temperatures Readings
Current 30°C / 86°F
Dewpoint 5°C / 41°F
Humidity 20%
Altimeter 30" Hg
Pressure 1016 hPa
Elevation 1104
METAR FKKN 171400Z 36008KT CAVOK 30/05 Q1016
Observed Flight Rules
Dec-17 @ 14:00 UTC
(29 minutes ago)
VFR
Wind Visibility
360° at 8 knots 10,000+ meters
Clouds
  • Clear skies
Temperature Dewpoint
30°C / 86°F 5°C / 41°F
Humidity Altimeter Pressure
20% 30" Hg 1016 hPa